Thursday, November 23, 2017, 4:37 AM EST
Back to Local

KNUI, Knui Webster Field Annex

Location: Saint Inigoes, MD, United States Lat: 38.15
Local Time: 4:37 AM EST ( 9:37 GMT) Lon: -76.417
Time Zone: US/Eastern Elev: 19 ft

Show me the last for .
Show Decoded

2017-11-23 03:53 METAR KNUI 230853Z AUTO 31005KT 10SM CLR 02/M03 A3016 RMK AO2 SLP212 T00171033
                 58002 =
2017-11-23 02:53 METAR KNUI 230753Z AUTO 29005KT 10SM CLR 02/M03 A3017 RMK AO2 SLP216 T00171033 =
2017-11-23 01:53 METAR KNUI 230653Z AUTO 29006KT 10SM CLR 02/M03 A3016 RMK AO2 SLP213 T00221028 =
2017-11-23 00:53 METAR KNUI 230553Z AUTO 30005KT 10SM CLR 03/M03 A3016 RMK AO2 SLP214 T00281028
                 10083 20028 50001 =
2017-11-22 23:53 METAR KNUI 230453Z AUTO 28003KT 10SM CLR 04/M03 A3017 RMK AO2 SLP215 T00391028
                 401560039 =
2017-11-22 22:53 METAR KNUI 230353Z AUTO VRB06KT 10SM CLR 04/M03 A3017 RMK AO2 SLP217 T00441028 =
2017-11-22 20:53 METAR KNUI 230153Z AUTO 29005KT 10SM CLR 06/M03 A3015 RMK AO2 SLP209 T00611028 =
2017-11-22 19:53 METAR KNUI 230053Z AUTO 31008G16KT 10SM CLR 07/M03 A3012 RMK AO2 SLP198
                 T00671028 =
2017-11-22 18:53 METAR KNUI 222353Z AUTO 30010G16KT 270V340 10SM CLR 08/M02 A3010 RMK AO2 SLP191
                 T00831017 10156 20083 51026 =
2017-11-22 17:53 METAR KNUI 222253Z AUTO 00000KT 10SM CLR 09/M01 A3008 RMK AO2 SLP185 T00891011 =
2017-11-22 16:53 METAR KNUI 222153Z AUTO VRB06KT 10SM CLR 10/M01 A3005 RMK AO2 SLP176 T01001011 =
2017-11-22 15:53 METAR KNUI 222053Z AUTO VRB06G17KT 10SM CLR 12/00 A3002 RMK AO2 SLP166 T01170000
                 53024 =
2017-11-22 14:53 METAR KNUI 221953Z AUTO 29012G21KT 10SM CLR 13/00 A2999 RMK AO2 SLP155 T01280000
                 =
2017-11-22 13:53 METAR KNUI 221853Z AUTO 30015G24KT 10SM CLR 14/02 A2997 RMK AO2 SLP147 T01440022
                 =
2017-11-22 12:53 METAR KNUI 221753Z AUTO 30012G20KT 9SM CLR 16/02 A2995 RMK AO2 SLP142 60001
                 T01560022 10156 20111 51006 =
2017-11-22 11:53 METAR KNUI 221653Z AUTO 31011G21KT 9SM CLR 16/02 A2995 RMK AO2 SLP140 T01560022
                 =
2017-11-22 10:53 METAR KNUI 221553Z AUTO 30010G21KT 280V340 9SM CLR 15/04 A2994 RMK AO2 SLP138
                 T01500044 =
2017-11-22 09:53 METAR KNUI 221453Z AUTO 32008KT 9SM OVC085 12/08 A2993 RMK AO2 SLP135 60001
                 T01220083 51008 =
2017-11-22 08:53 METAR KNUI 221353Z AUTO 30007KT 7SM OVC075 12/11 A2993 RMK AO2 SLP135 T01170111
                 =
2017-11-22 07:53 METAR KNUI 221253Z AUTO 29007KT 9SM BKN075 OVC090 12/12 A2993 RMK AO2 RAE51
                 SLP135 P0001 T01220117 =
2017-11-22 06:40 METAR KNUI 221140Z AUTO 20005KT 2 1/2SM RA BR BKN060 OVC075 12/12 A2991 =
2017-11-22 05:53 METAR KNUI 221053Z AUTO 19003KT 6SM -RA BR FEW029 BKN048 OVC080 12/11 A2991 RMK
                 AO2 SLP127 P0008 T01170111 $ =
2017-11-22 05:46 METAR KNUI 221046Z AUTO VRB03KT 6SM -RA BR SCT027 BKN040 OVC080 12/11 A2990 RMK
                 AO2 P0007 T01170111 $ =
2017-11-22 05:29 METAR KNUI 221029Z AUTO 00000KT 3SM -RA BR SCT022 OVC029 12/11 A2992 RMK AO2
                 P0007 T01170111 $ =
2017-11-22 05:19 METAR KNUI 221019Z AUTO 26003KT 1 3/4SM +RA BR BKN020 OVC029 12/11 A2993 RMK AO2
                 P0006 T01170111 $ =
2017-11-22 04:53 METAR KNUI 220953Z AUTO 26003KT 2 1/2SM -RA BR OVC018 12/11 A2994 RMK AO2 RAB31
                 SLP136 P0004 T01170111 $ =
2017-11-22 04:50 METAR KNUI 220950Z AUTO 27004KT 2SM RA BR OVC018 12/11 A2993 RMK AO2 RAB31 P0004
                 $ =

Support USWX by starting your Amazon purchase here.